Aeroporto :
LOGIN :

Iscrizione | Disclaimer

   EN    FR    IT 

 










Sommario :    VFR   VFR Marginale   IFR   IFR Intensivo   IFR Molto Intensivo
Visibilità : 
Base nubi : 
>= 8 km
>= 3000ft
5 / 8 km
1000 / 3000 ft
1500m / 5 km
500 / 1000 ft
800 / 1500m
200 / 500 ft
< 800m
< 200 ft
Simboli :   Temporali  Nebbia  Neve Forte  Precipitazioni Forti  Vento > 20 kt
SIGMETs :   Varie  Temporali  Ghiacco  Turbolenza  Onda orograficha  Ceneri Vulcaniche






- Altitudine del aeroporto : 375 ft
- Codice IATA : MST


EHBK - Maastricht Aachen

ULTIMO METAR :
  • 261525Z AUTO 05003KT 040V120 9999 NSC 09/07 Q1019 NOSIG

METARs OBSOLETI :
  • 261455Z AUTO 06005KT 9999 NSC 10/08 Q1019 NOSIG
  • 261425Z AUTO 04003KT 320V070 9999 NSC 11/07 Q1019 NOSIG
  • 261355Z AUTO VRB02KT 9999 NSC 12/07 Q1019 NOSIG
  • 261325Z AUTO VRB02KT 9999 BKN049 12/07 Q1020 NOSIG
  • 261255Z AUTO 21004KT 160V250 9999 OVC047 12/07 Q1020 NOSIG

TAF TAF EHBK
Valido dal 26 a 12 ore il 27 a 18 ore UTC


261107Z 2612/2718 20004KT 9999 BKN040
BECMG 2621/2624 4000 BR
PROB30 2700/2709 2000
BECMG 2709/2712 9999 NSW



MetMap, La meteo Aeronautica in un colpo d'occhio ! - Copyright ORBIFLY Dicembre 2007 - Disclaimer

ORBIFLY MET'MAP TEAM :

Programmazione e sviluppo : Alexandra Zaïnal
Concezione : Baudouin d'Aumeries
Aiuto per la programmazione : Marc-Olivier Méhu
Supporto tecnico e logistico : Manuel Goepfert
Aiuto per la traduzione : Arnaldo La Scala

Contatto : metmap@orbifly.com




FONTI E CREDITI :

   NOAA